Etusivu
METAR-TAF:

METAR-TAF

Lentoasemat :

Rovaniemen lentoasema

Rovaniemi, Suomi

Leveyspiiri: 66-34N, Pituuspiiri: 025-50E, korkeus merenpinnasta: 197 m

Tämänhetkinen sää

Tämä raportti tehtiin 17 minuuttia sitten, kello 02.20 UTC
Tuuli 6 kn lännestä/lounaasta
Lämpötila 10°C
Kosteus 76%
Ilmanpaine 1023 hPa
Näkyvyys 10 km tai enemmän
ei pilviä alle 1500 m:ssä eikä cumulonimbus-pilviä

METAR: EFRO 220220Z AUTO 24006KT CAVOK 10/06 Q1023

Aika: 05:37 (02:37 UTC)

Sääennuste

Tämä raportti tehtiin 3 tuntia ja 15 minuuttia sitten, kello 23.22 UTC
Ennuste voimassa 22. päivästä klo 00 UTC - 22. päivään klo 24 UTC
Tuuli 5 kn lounaasta
Näkyvyys 10 km tai enemmän
ei pilviä alle 1500 m:ssä eikä cumulonimbus-pilviä
Tulossa
22. päivästä klo 17 UTC - 22. päivään klo 19 UTC
Tuuli 11 kn pohjoisesta

TAF: EFRO 212322Z 2200/2224 22005KT CAVOK BECMG 2217/2219 35011KT

Säähavainnot ja -ennusteet yli 4000 lentoasemalta (METAR- ja TAF-raportit).

Käytössä olevat sääasemat on merkitty karttaan keltaisilla ja punaisilla pisteillä.

Aseta hiiri pisteen päälle nähdäksesi sääaseman nimen.

Klikkaa sitten nähdäksesi säähavainnot ja -ennusteet.

Kartan vaihtaminen: klikkaa mustalla rastilla varustettuja vihreitä pisteitä, niin voit zoomata sisään; viivalla varustettua vihreää pistettä, niin voit zoomata ulos tai vihreitä nuolia, niin pääset viereisille kartoille.


METAR-TAF: